sensor_id;sensor_type;location;lat;lon;timestamp;P1;durP1;ratioP1;P2;durP2;ratioP2
51358;SDS011;37448;51.588;7.248;2023-03-20T00:00:00;16.55;;;8.93;;
51358;SDS011;37448;51.588;7.248;2023-03-20T00:02:02;18.52;;;9.07;;
51358;SDS011;37448;51.588;7.248;2023-03-20T00:04:03;23.98;;;9.70;;
51358;SDS011;37448;51.588;7.248;2023-03-20T00:06:04;20.90;;;11.23;;
51358;SDS011;37448;51.588;7.248;2023-03-20T00:08:05;17.20;;;9.27;;
51358;SDS011;37448;51.588;7.248;2023-03-20T00:10:06;20.38;;;10.57;;
51358;SDS011;37448;51.588;7.248;2023-03-20T00:12:09;20.85;;;11.02;;
51358;SDS011;37448;51.588;7.248;2023-03-20T00:14:15;22.45;;;10.90;;
51358;SDS011;37448;51.588;7.248;2023-03-20T00:16:17;22.35;;;11.02;;
51358;SDS011;37448;51.588;7.248;2023-03-20T00:18:18;21.60;;;11.20;;
51358;SDS011;37448;51.588;7.248;2023-03-20T00:20:22;19.83;;;10.98;;
51358;SDS011;37448;51.588;7.248;2023-03-20T00:22:22;24.17;;;11.10;;
51358;SDS011;37448;51.588;7.248;2023-03-20T00:24:23;21.23;;;12.00;;
51358;SDS011;37448;51.588;7.248;2023-03-20T00:26:26;20.77;;;11.27;;
51358;SDS011;37448;51.588;7.248;2023-03-20T00:30:38;23.52;;;11.50;;
51358;SDS011;37448;51.588;7.248;2023-03-20T00:32:38;20.50;;;11.02;;
51358;SDS011;37448;51.588;7.248;2023-03-20T00:34:38;26.25;;;11.00;;
51358;SDS011;37448;51.588;7.248;2023-03-20T00:36:39;22.42;;;11.75;;
51358;SDS011;37448;51.588;7.248;2023-03-20T00:38:40;22.85;;;11.45;;
51358;SDS011;37448;51.588;7.248;2023-03-20T00:40:42;22.77;;;12.60;;
51358;SDS011;37448;51.588;7.248;2023-03-20T00:42:45;23.75;;;12.57;;
51358;SDS011;37448;51.588;7.248;2023-03-20T00:44:51;22.30;;;12.65;;
51358;SDS011;37448;51.588;7.248;2023-03-20T00:46:57;26.65;;;11.77;;
51358;SDS011;37448;51.588;7.248;2023-03-20T00:49:00;26.05;;;12.80;;
51358;SDS011;37448;51.588;7.248;2023-03-20T00:51:02;28.15;;;12.27;;
51358;SDS011;37448;51.588;7.248;2023-03-20T00:53:02;22.70;;;12.02;;
51358;SDS011;37448;51.588;7.248;2023-03-20T00:55:03;23.95;;;11.63;;
51358;SDS011;37448;51.588;7.248;2023-03-20T00:57:08;21.05;;;11.75;;
51358;SDS011;37448;51.588;7.248;2023-03-20T00:59:31;24.27;;;11.73;;
51358;SDS011;37448;51.588;7.248;2023-03-20T01:01:35;21.48;;;10.63;;
51358;SDS011;37448;51.588;7.248;2023-03-20T01:03:35;24.50;;;11.80;;
51358;SDS011;37448;51.588;7.248;2023-03-20T01:05:36;24.10;;;13.02;;
51358;SDS011;37448;51.588;7.248;2023-03-20T01:07:36;23.02;;;11.27;;
51358;SDS011;37448;51.588;7.248;2023-03-20T01:09:36;23.35;;;10.98;;
51358;SDS011;37448;51.588;7.248;2023-03-20T01:11:38;24.98;;;11.80;;
51358;SDS011;37448;51.588;7.248;2023-03-20T01:13:42;22.83;;;12.30;;
51358;SDS011;37448;51.588;7.248;2023-03-20T01:15:42;23.38;;;11.90;;
51358;SDS011;37448;51.588;7.248;2023-03-20T01:17:43;24.33;;;12.52;;
51358;SDS011;37448;51.588;7.248;2023-03-20T01:19:44;21.10;;;10.77;;
51358;SDS011;37448;51.588;7.248;2023-03-20T01:21:45;20.10;;;11.15;;
51358;SDS011;37448;51.588;7.248;2023-03-20T01:23:46;21.60;;;10.18;;
51358;SDS011;37448;51.588;7.248;2023-03-20T01:25:47;23.58;;;11.73;;
51358;SDS011;37448;51.588;7.248;2023-03-20T01:27:50;24.27;;;10.60;;
51358;SDS011;37448;51.588;7.248;2023-03-20T01:29:52;19.52;;;9.73;;
51358;SDS011;37448;51.588;7.248;2023-03-20T01:31:52;20.77;;;11.07;;
51358;SDS011;37448;51.588;7.248;2023-03-20T01:33:55;19.38;;;9.35;;
51358;SDS011;37448;51.588;7.248;2023-03-20T01:35:56;20.42;;;9.82;;
51358;SDS011;37448;51.588;7.248;2023-03-20T01:37:57;22.38;;;10.10;;
51358;SDS011;37448;51.588;7.248;2023-03-20T01:39:57;24.30;;;10.90;;
51358;SDS011;37448;51.588;7.248;2023-03-20T01:41:58;19.50;;;10.02;;
51358;SDS011;37448;51.588;7.248;2023-03-20T01:44:05;16.13;;;9.13;;
51358;SDS011;37448;51.588;7.248;2023-03-20T01:46:19;19.77;;;10.25;;
51358;SDS011;37448;51.588;7.248;2023-03-20T01:48:24;18.52;;;10.60;;
51358;SDS011;37448;51.588;7.248;2023-03-20T01:50:32;19.00;;;9.57;;
51358;SDS011;37448;51.588;7.248;2023-03-20T01:52:38;20.02;;;9.35;;
51358;SDS011;37448;51.588;7.248;2023-03-20T01:54:39;22.50;;;9.82;;
51358;SDS011;37448;51.588;7.248;2023-03-20T01:56:44;18.38;;;9.45;;
51358;SDS011;37448;51.588;7.248;2023-03-20T01:58:54;18.38;;;10.07;;
51358;SDS011;37448;51.588;7.248;2023-03-20T02:00:59;21.77;;;9.43;;
51358;SDS011;37448;51.588;7.248;2023-03-20T02:02:59;16.60;;;8.43;;
51358;SDS011;37448;51.588;7.248;2023-03-20T02:05:19;19.02;;;8.75;;
51358;SDS011;37448;51.588;7.248;2023-03-20T02:07:22;17.30;;;9.18;;
51358;SDS011;37448;51.588;7.248;2023-03-20T02:09:45;14.93;;;8.32;;
51358;SDS011;37448;51.588;7.248;2023-03-20T02:11:50;14.82;;;8.18;;
51358;SDS011;37448;51.588;7.248;2023-03-20T02:13:54;16.77;;;9.02;;
51358;SDS011;37448;51.588;7.248;2023-03-20T02:16:02;16.45;;;9.68;;
51358;SDS011;37448;51.588;7.248;2023-03-20T02:18:23;17.77;;;9.18;;
51358;SDS011;37448;51.588;7.248;2023-03-20T02:20:30;20.08;;;10.38;;
51358;SDS011;37448;51.588;7.248;2023-03-20T02:23:07;17.77;;;8.90;;
51358;SDS011;37448;51.588;7.248;2023-03-20T02:25:31;19.52;;;9.57;;
51358;SDS011;37448;51.588;7.248;2023-03-20T02:41:44;19.00;;;9.95;;
51358;SDS011;37448;51.588;7.248;2023-03-20T02:48:46;19.83;;;10.57;;
51358;SDS011;37448;51.588;7.248;2023-03-20T02:51:06;21.70;;;10.57;;
51358;SDS011;37448;51.588;7.248;2023-03-20T02:53:19;20.42;;;10.95;;
51358;SDS011;37448;51.588;7.248;2023-03-20T02:57:50;23.17;;;10.43;;
51358;SDS011;37448;51.588;7.248;2023-03-20T03:02:02;21.50;;;11.32;;
51358;SDS011;37448;51.588;7.248;2023-03-20T03:04:16;19.75;;;9.85;;
51358;SDS011;37448;51.588;7.248;2023-03-20T03:08:30;17.98;;;9.40;;
51358;SDS011;37448;51.588;7.248;2023-03-20T03:10:58;18.73;;;9.68;;
51358;SDS011;37448;51.588;7.248;2023-03-20T03:12:59;20.17;;;9.70;;
51358;SDS011;37448;51.588;7.248;2023-03-20T03:15:03;19.73;;;10.55;;
51358;SDS011;37448;51.588;7.248;2023-03-20T03:17:07;22.92;;;10.93;;
51358;SDS011;37448;51.588;7.248;2023-03-20T03:19:17;19.17;;;9.95;;
51358;SDS011;37448;51.588;7.248;2023-03-20T03:21:22;16.85;;;9.38;;
51358;SDS011;37448;51.588;7.248;2023-03-20T03:23:30;15.95;;;9.48;;
51358;SDS011;37448;51.588;7.248;2023-03-20T03:25:34;17.40;;;8.88;;
51358;SDS011;37448;51.588;7.248;2023-03-20T03:27:40;16.85;;;8.98;;
51358;SDS011;37448;51.588;7.248;2023-03-20T03:29:44;12.10;;;7.00;;
51358;SDS011;37448;51.588;7.248;2023-03-20T03:31:50;17.95;;;8.88;;
51358;SDS011;37448;51.588;7.248;2023-03-20T03:33:52;15.15;;;8.10;;
51358;SDS011;37448;51.588;7.248;2023-03-20T03:42:56;13.40;;;7.38;;
51358;SDS011;37448;51.588;7.248;2023-03-20T03:45:15;13.27;;;6.65;;
51358;SDS011;37448;51.588;7.248;2023-03-20T03:47:22;11.98;;;6.18;;
51358;SDS011;37448;51.588;7.248;2023-03-20T03:49:31;10.65;;;5.60;;
51358;SDS011;37448;51.588;7.248;2023-03-20T03:51:35;12.95;;;6.65;;
51358;SDS011;37448;51.588;7.248;2023-03-20T03:53:46;10.85;;;5.88;;
51358;SDS011;37448;51.588;7.248;2023-03-20T03:55:54;11.57;;;5.30;;
51358;SDS011;37448;51.588;7.248;2023-03-20T03:58:13;11.68;;;5.65;;
51358;SDS011;37448;51.588;7.248;2023-03-20T04:00:26;12.57;;;5.28;;
51358;SDS011;37448;51.588;7.248;2023-03-20T04:02:27;9.90;;;5.78;;
51358;SDS011;37448;51.588;7.248;2023-03-20T04:04:31;10.23;;;5.80;;
51358;SDS011;37448;51.588;7.248;2023-03-20T04:06:35;9.55;;;4.22;;
51358;SDS011;37448;51.588;7.248;2023-03-20T04:08:36;9.65;;;4.43;;
51358;SDS011;37448;51.588;7.248;2023-03-20T04:10:38;7.22;;;5.10;;
51358;SDS011;37448;51.588;7.248;2023-03-20T04:12:42;7.47;;;4.55;;
51358;SDS011;37448;51.588;7.248;2023-03-20T04:14:44;9.18;;;4.68;;
51358;SDS011;37448;51.588;7.248;2023-03-20T04:16:45;9.63;;;4.05;;
51358;SDS011;37448;51.588;7.248;2023-03-20T04:18:45;6.80;;;3.75;;
51358;SDS011;37448;51.588;7.248;2023-03-20T04:20:47;6.72;;;3.50;;
51358;SDS011;37448;51.588;7.248;2023-03-20T04:22:49;7.45;;;3.55;;
51358;SDS011;37448;51.588;7.248;2023-03-20T04:24:51;8.70;;;4.03;;
51358;SDS011;37448;51.588;7.248;2023-03-20T04:26:52;6.18;;;3.47;;
51358;SDS011;37448;51.588;7.248;2023-03-20T04:28:53;8.20;;;3.83;;
51358;SDS011;37448;51.588;7.248;2023-03-20T04:31:13;7.93;;;3.67;;
51358;SDS011;37448;51.588;7.248;2023-03-20T04:33:32;5.68;;;3.38;;
51358;SDS011;37448;51.588;7.248;2023-03-20T04:35:58;6.50;;;3.50;;
51358;SDS011;37448;51.588;7.248;2023-03-20T04:37:59;6.18;;;3.08;;
51358;SDS011;37448;51.588;7.248;2023-03-20T04:40:00;6.85;;;3.40;;
51358;SDS011;37448;51.588;7.248;2023-03-20T04:42:01;6.43;;;3.20;;
51358;SDS011;37448;51.588;7.248;2023-03-20T04:44:02;8.23;;;3.72;;
51358;SDS011;37448;51.588;7.248;2023-03-20T04:46:04;7.25;;;3.55;;
51358;SDS011;37448;51.588;7.248;2023-03-20T04:48:05;6.93;;;3.08;;
51358;SDS011;37448;51.588;7.248;2023-03-20T04:50:05;6.97;;;3.53;;
51358;SDS011;37448;51.588;7.248;2023-03-20T04:52:06;7.28;;;3.95;;
51358;SDS011;37448;51.588;7.248;2023-03-20T04:54:13;8.25;;;4.55;;
51358;SDS011;37448;51.588;7.248;2023-03-20T04:56:13;8.57;;;3.80;;
51358;SDS011;37448;51.588;7.248;2023-03-20T04:58:14;6.80;;;4.60;;
51358;SDS011;37448;51.588;7.248;2023-03-20T05:00:15;11.63;;;5.22;;
51358;SDS011;37448;51.588;7.248;2023-03-20T05:02:15;10.30;;;6.13;;
51358;SDS011;37448;51.588;7.248;2023-03-20T05:04:16;11.02;;;5.90;;
51358;SDS011;37448;51.588;7.248;2023-03-20T05:06:17;11.60;;;5.65;;
51358;SDS011;37448;51.588;7.248;2023-03-20T05:08:18;11.07;;;5.65;;
51358;SDS011;37448;51.588;7.248;2023-03-20T05:10:18;11.13;;;5.18;;
51358;SDS011;37448;51.588;7.248;2023-03-20T05:12:28;11.75;;;6.65;;
51358;SDS011;37448;51.588;7.248;2023-03-20T05:14:45;13.43;;;6.32;;
51358;SDS011;37448;51.588;7.248;2023-03-20T05:17:04;12.50;;;6.28;;
51358;SDS011;37448;51.588;7.248;2023-03-20T05:19:23;11.38;;;6.35;;
51358;SDS011;37448;51.588;7.248;2023-03-20T05:21:42;10.43;;;4.93;;
51358;SDS011;37448;51.588;7.248;2023-03-20T05:24:03;12.50;;;5.70;;
51358;SDS011;37448;51.588;7.248;2023-03-20T05:26:30;10.93;;;5.95;;
51358;SDS011;37448;51.588;7.248;2023-03-20T05:28:50;15.75;;;5.88;;
51358;SDS011;37448;51.588;7.248;2023-03-20T05:31:02;13.60;;;5.75;;
51358;SDS011;37448;51.588;7.248;2023-03-20T05:33:25;11.73;;;5.80;;
51358;SDS011;37448;51.588;7.248;2023-03-20T05:35:51;14.15;;;6.00;;
51358;SDS011;37448;51.588;7.248;2023-03-20T05:38:30;12.32;;;6.20;;
51358;SDS011;37448;51.588;7.248;2023-03-20T05:40:49;10.80;;;7.00;;
51358;SDS011;37448;51.588;7.248;2023-03-20T05:43:07;12.82;;;6.80;;
51358;SDS011;37448;51.588;7.248;2023-03-20T05:45:34;15.88;;;7.18;;
51358;SDS011;37448;51.588;7.248;2023-03-20T05:47:40;15.93;;;7.53;;
51358;SDS011;37448;51.588;7.248;2023-03-20T05:49:58;16.92;;;6.70;;
51358;SDS011;37448;51.588;7.248;2023-03-20T05:52:17;13.95;;;7.90;;
51358;SDS011;37448;51.588;7.248;2023-03-20T05:54:42;15.38;;;7.32;;
51358;SDS011;37448;51.588;7.248;2023-03-20T05:56:56;15.07;;;6.95;;
51358;SDS011;37448;51.588;7.248;2023-03-20T05:59:21;16.95;;;7.40;;
51358;SDS011;37448;51.588;7.248;2023-03-20T06:01:35;15.18;;;8.02;;
51358;SDS011;37448;51.588;7.248;2023-03-20T06:03:41;15.68;;;6.90;;
51358;SDS011;37448;51.588;7.248;2023-03-20T06:05:49;15.60;;;7.13;;
51358;SDS011;37448;51.588;7.248;2023-03-20T06:07:50;16.25;;;7.80;;
51358;SDS011;37448;51.588;7.248;2023-03-20T06:09:50;17.92;;;7.30;;
51358;SDS011;37448;51.588;7.248;2023-03-20T06:11:51;12.57;;;7.25;;
51358;SDS011;37448;51.588;7.248;2023-03-20T06:13:52;15.52;;;8.43;;
51358;SDS011;37448;51.588;7.248;2023-03-20T06:15:56;16.33;;;6.78;;
51358;SDS011;37448;51.588;7.248;2023-03-20T06:17:56;17.02;;;8.38;;
51358;SDS011;37448;51.588;7.248;2023-03-20T06:19:58;17.60;;;8.57;;
51358;SDS011;37448;51.588;7.248;2023-03-20T06:21:58;23.45;;;10.02;;
51358;SDS011;37448;51.588;7.248;2023-03-20T06:23:58;20.15;;;8.55;;
51358;SDS011;37448;51.588;7.248;2023-03-20T06:25:59;21.15;;;9.55;;
51358;SDS011;37448;51.588;7.248;2023-03-20T06:28:00;20.20;;;9.75;;
51358;SDS011;37448;51.588;7.248;2023-03-20T06:30:01;18.98;;;9.75;;
51358;SDS011;37448;51.588;7.248;2023-03-20T06:32:06;21.15;;;9.25;;
51358;SDS011;37448;51.588;7.248;2023-03-20T06:34:08;17.75;;;8.75;;
51358;SDS011;37448;51.588;7.248;2023-03-20T06:36:13;18.52;;;9.00;;
51358;SDS011;37448;51.588;7.248;2023-03-20T06:38:14;20.10;;;9.50;;
51358;SDS011;37448;51.588;7.248;2023-03-20T06:40:15;17.05;;;8.52;;
51358;SDS011;37448;51.588;7.248;2023-03-20T06:42:16;18.58;;;7.95;;
51358;SDS011;37448;51.588;7.248;2023-03-20T06:44:18;16.52;;;6.88;;
51358;SDS011;37448;51.588;7.248;2023-03-20T06:46:57;13.57;;;6.68;;
51358;SDS011;37448;51.588;7.248;2023-03-20T06:48:58;11.38;;;5.65;;
51358;SDS011;37448;51.588;7.248;2023-03-20T06:50:58;12.70;;;7.20;;
51358;SDS011;37448;51.588;7.248;2023-03-20T06:53:06;13.13;;;7.07;;
51358;SDS011;37448;51.588;7.248;2023-03-20T06:55:07;10.93;;;5.82;;
51358;SDS011;37448;51.588;7.248;2023-03-20T06:57:08;13.02;;;5.82;;
51358;SDS011;37448;51.588;7.248;2023-03-20T06:59:09;12.82;;;6.00;;
51358;SDS011;37448;51.588;7.248;2023-03-20T07:01:10;13.95;;;6.50;;
51358;SDS011;37448;51.588;7.248;2023-03-20T07:03:13;11.82;;;6.13;;
51358;SDS011;37448;51.588;7.248;2023-03-20T07:05:15;13.63;;;6.10;;
51358;SDS011;37448;51.588;7.248;2023-03-20T07:07:17;16.83;;;7.07;;
51358;SDS011;37448;51.588;7.248;2023-03-20T07:09:18;13.25;;;7.53;;
51358;SDS011;37448;51.588;7.248;2023-03-20T07:11:18;17.23;;;8.30;;
51358;SDS011;37448;51.588;7.248;2023-03-20T07:13:19;19.10;;;7.07;;
51358;SDS011;37448;51.588;7.248;2023-03-20T07:15:20;15.38;;;7.10;;
51358;SDS011;37448;51.588;7.248;2023-03-20T07:17:21;12.63;;;5.93;;
51358;SDS011;37448;51.588;7.248;2023-03-20T07:19:22;11.98;;;5.88;;
51358;SDS011;37448;51.588;7.248;2023-03-20T07:21:26;12.50;;;5.97;;
51358;SDS011;37448;51.588;7.248;2023-03-20T07:23:26;15.40;;;5.53;;
51358;SDS011;37448;51.588;7.248;2023-03-20T07:25:27;9.82;;;4.43;;
51358;SDS011;37448;51.588;7.248;2023-03-20T07:27:29;9.18;;;4.80;;
51358;SDS011;37448;51.588;7.248;2023-03-20T07:29:30;11.60;;;4.28;;
51358;SDS011;37448;51.588;7.248;2023-03-20T07:31:31;7.85;;;4.55;;
51358;SDS011;37448;51.588;7.248;2023-03-20T07:33:54;9.02;;;4.30;;
51358;SDS011;37448;51.588;7.248;2023-03-20T07:35:55;10.07;;;5.10;;
51358;SDS011;37448;51.588;7.248;2023-03-20T07:37:56;12.05;;;5.07;;
51358;SDS011;37448;51.588;7.248;2023-03-20T07:39:57;7.18;;;3.85;;
51358;SDS011;37448;51.588;7.248;2023-03-20T07:42:21;7.82;;;4.20;;
51358;SDS011;37448;51.588;7.248;2023-03-20T07:44:32;8.48;;;3.70;;
51358;SDS011;37448;51.588;7.248;2023-03-20T07:46:34;9.23;;;3.80;;
51358;SDS011;37448;51.588;7.248;2023-03-20T07:48:35;7.57;;;4.03;;
51358;SDS011;37448;51.588;7.248;2023-03-20T07:50:35;6.97;;;4.03;;
51358;SDS011;37448;51.588;7.248;2023-03-20T07:52:36;7.45;;;3.67;;
51358;SDS011;37448;51.588;7.248;2023-03-20T07:54:36;6.32;;;3.17;;
51358;SDS011;37448;51.588;7.248;2023-03-20T07:56:37;8.48;;;3.60;;
51358;SDS011;37448;51.588;7.248;2023-03-20T07:58:37;8.88;;;4.07;;
51358;SDS011;37448;51.588;7.248;2023-03-20T08:00:38;6.45;;;3.13;;
51358;SDS011;37448;51.588;7.248;2023-03-20T08:02:38;10.80;;;3.75;;
51358;SDS011;37448;51.588;7.248;2023-03-20T08:04:38;6.25;;;3.40;;
51358;SDS011;37448;51.588;7.248;2023-03-20T08:06:39;9.25;;;4.00;;
51358;SDS011;37448;51.588;7.248;2023-03-20T08:08:39;9.43;;;4.10;;
51358;SDS011;37448;51.588;7.248;2023-03-20T08:10:39;6.43;;;3.70;;
51358;SDS011;37448;51.588;7.248;2023-03-20T08:12:40;7.70;;;3.60;;
51358;SDS011;37448;51.588;7.248;2023-03-20T08:14:40;10.23;;;4.43;;
51358;SDS011;37448;51.588;7.248;2023-03-20T08:16:42;8.23;;;3.72;;
51358;SDS011;37448;51.588;7.248;2023-03-20T08:18:43;5.95;;;3.42;;
51358;SDS011;37448;51.588;7.248;2023-03-20T08:20:43;8.95;;;3.88;;
51358;SDS011;37448;51.588;7.248;2023-03-20T08:22:43;8.90;;;4.25;;
51358;SDS011;37448;51.588;7.248;2023-03-20T08:24:44;14.38;;;4.95;;
51358;SDS011;37448;51.588;7.248;2023-03-20T08:26:45;8.85;;;4.65;;
51358;SDS011;37448;51.588;7.248;2023-03-20T08:28:45;7.50;;;4.50;;
51358;SDS011;37448;51.588;7.248;2023-03-20T08:30:46;16.33;;;6.00;;
51358;SDS011;37448;51.588;7.248;2023-03-20T08:32:46;11.88;;;5.13;;
51358;SDS011;37448;51.588;7.248;2023-03-20T08:34:47;15.00;;;6.72;;
51358;SDS011;37448;51.588;7.248;2023-03-20T08:36:47;13.10;;;5.25;;
51358;SDS011;37448;51.588;7.248;2023-03-20T08:38:48;13.57;;;5.35;;
51358;SDS011;37448;51.588;7.248;2023-03-20T08:40:49;11.75;;;5.93;;
51358;SDS011;37448;51.588;7.248;2023-03-20T08:42:49;13.98;;;5.70;;
51358;SDS011;37448;51.588;7.248;2023-03-20T08:44:49;16.92;;;6.90;;
51358;SDS011;37448;51.588;7.248;2023-03-20T08:46:50;16.98;;;6.70;;
51358;SDS011;37448;51.588;7.248;2023-03-20T08:48:50;13.15;;;6.22;;
51358;SDS011;37448;51.588;7.248;2023-03-20T08:50:50;11.02;;;5.97;;
51358;SDS011;37448;51.588;7.248;2023-03-20T08:52:51;15.38;;;6.10;;
51358;SDS011;37448;51.588;7.248;2023-03-20T08:54:51;11.07;;;5.15;;
51358;SDS011;37448;51.588;7.248;2023-03-20T08:56:52;10.93;;;5.13;;
51358;SDS011;37448;51.588;7.248;2023-03-20T08:58:52;12.27;;;4.95;;
51358;SDS011;37448;51.588;7.248;2023-03-20T09:00:54;8.27;;;4.30;;
51358;SDS011;37448;51.588;7.248;2023-03-20T09:02:55;10.95;;;4.50;;
51358;SDS011;37448;51.588;7.248;2023-03-20T09:04:55;8.52;;;4.43;;
51358;SDS011;37448;51.588;7.248;2023-03-20T09:06:56;8.75;;;4.95;;
51358;SDS011;37448;51.588;7.248;2023-03-20T09:08:56;9.13;;;3.85;;
51358;SDS011;37448;51.588;7.248;2023-03-20T09:10:56;9.25;;;4.88;;
51358;SDS011;37448;51.588;7.248;2023-03-20T09:12:57;10.60;;;5.47;;
51358;SDS011;37448;51.588;7.248;2023-03-20T09:14:58;11.07;;;5.07;;
51358;SDS011;37448;51.588;7.248;2023-03-20T09:16:58;11.35;;;4.25;;
51358;SDS011;37448;51.588;7.248;2023-03-20T09:18:59;9.65;;;4.15;;
51358;SDS011;37448;51.588;7.248;2023-03-20T09:21:00;7.47;;;3.17;;
51358;SDS011;37448;51.588;7.248;2023-03-20T09:23:00;5.40;;;2.70;;
51358;SDS011;37448;51.588;7.248;2023-03-20T09:25:01;6.95;;;3.25;;
51358;SDS011;37448;51.588;7.248;2023-03-20T09:27:01;6.70;;;2.88;;
51358;SDS011;37448;51.588;7.248;2023-03-20T09:29:02;6.60;;;3.22;;
51358;SDS011;37448;51.588;7.248;2023-03-20T09:31:03;5.45;;;3.10;;
51358;SDS011;37448;51.588;7.248;2023-03-20T09:33:03;6.45;;;3.05;;
51358;SDS011;37448;51.588;7.248;2023-03-20T09:35:05;6.13;;;2.97;;
51358;SDS011;37448;51.588;7.248;2023-03-20T09:37:06;7.20;;;2.92;;
51358;SDS011;37448;51.588;7.248;2023-03-20T09:39:06;5.68;;;2.92;;
51358;SDS011;37448;51.588;7.248;2023-03-20T09:41:26;5.80;;;3.03;;
51358;SDS011;37448;51.588;7.248;2023-03-20T09:43:44;4.90;;;2.30;;
51358;SDS011;37448;51.588;7.248;2023-03-20T09:48:45;5.57;;;2.28;;
51358;SDS011;37448;51.588;7.248;2023-03-20T09:53:26;4.25;;;1.90;;
51358;SDS011;37448;51.588;7.248;2023-03-20T09:55:40;7.93;;;2.85;;
51358;SDS011;37448;51.588;7.248;2023-03-20T09:57:44;4.03;;;2.30;;
51358;SDS011;37448;51.588;7.248;2023-03-20T09:59:52;4.88;;;2.70;;
51358;SDS011;37448;51.588;7.248;2023-03-20T10:04:38;3.85;;;2.28;;
51358;SDS011;37448;51.588;7.248;2023-03-20T10:06:41;2.88;;;1.85;;
51358;SDS011;37448;51.588;7.248;2023-03-20T10:08:42;2.83;;;1.38;;
51358;SDS011;37448;51.588;7.248;2023-03-20T10:15:13;4.32;;;1.85;;
51358;SDS011;37448;51.588;7.248;2023-03-20T10:22:14;4.97;;;1.67;;
51358;SDS011;37448;51.588;7.248;2023-03-20T10:24:29;15.38;;;1.83;;
51358;SDS011;37448;51.588;7.248;2023-03-20T10:26:34;3.95;;;1.15;;
51358;SDS011;37448;51.588;7.248;2023-03-20T10:28:38;2.78;;;1.30;;
51358;SDS011;37448;51.588;7.248;2023-03-20T10:40:40;2.03;;;0.98;;
51358;SDS011;37448;51.588;7.248;2023-03-20T10:42:42;1.70;;;0.70;;
51358;SDS011;37448;51.588;7.248;2023-03-20T10:44:57;4.53;;;1.20;;
51358;SDS011;37448;51.588;7.248;2023-03-20T10:47:02;2.53;;;0.98;;
51358;SDS011;37448;51.588;7.248;2023-03-20T10:49:09;2.92;;;1.25;;
51358;SDS011;37448;51.588;7.248;2023-03-20T10:51:17;5.88;;;1.02;;
51358;SDS011;37448;51.588;7.248;2023-03-20T10:53:32;8.25;;;1.40;;
51358;SDS011;37448;51.588;7.248;2023-03-20T10:55:37;2.17;;;1.08;;
51358;SDS011;37448;51.588;7.248;2023-03-20T10:57:47;2.03;;;0.60;;
51358;SDS011;37448;51.588;7.248;2023-03-20T10:59:55;2.80;;;1.50;;
51358;SDS011;37448;51.588;7.248;2023-03-20T11:01:56;3.78;;;1.45;;
51358;SDS011;37448;51.588;7.248;2023-03-20T11:03:56;2.95;;;1.33;;
51358;SDS011;37448;51.588;7.248;2023-03-20T11:06:09;4.18;;;1.50;;
51358;SDS011;37448;51.588;7.248;2023-03-20T11:08:21;1.38;;;1.13;;
51358;SDS011;37448;51.588;7.248;2023-03-20T11:10:24;4.45;;;1.65;;
51358;SDS011;37448;51.588;7.248;2023-03-20T11:12:26;2.70;;;1.33;;
51358;SDS011;37448;51.588;7.248;2023-03-20T11:14:33;5.75;;;1.70;;
51358;SDS011;37448;51.588;7.248;2023-03-20T11:16:36;2.90;;;1.75;;
51358;SDS011;37448;51.588;7.248;2023-03-20T11:18:39;3.88;;;1.45;;
51358;SDS011;37448;51.588;7.248;2023-03-20T11:20:54;2.83;;;1.27;;
51358;SDS011;37448;51.588;7.248;2023-03-20T11:22:57;7.00;;;1.40;;
51358;SDS011;37448;51.588;7.248;2023-03-20T11:25:01;4.07;;;1.80;;
51358;SDS011;37448;51.588;7.248;2023-03-20T11:27:15;4.18;;;1.85;;
51358;SDS011;37448;51.588;7.248;2023-03-20T11:29:24;4.20;;;1.80;;
51358;SDS011;37448;51.588;7.248;2023-03-20T11:31:30;3.47;;;1.58;;
51358;SDS011;37448;51.588;7.248;2023-03-20T11:33:38;3.97;;;2.00;;
51358;SDS011;37448;51.588;7.248;2023-03-20T11:35:45;3.72;;;2.10;;
51358;SDS011;37448;51.588;7.248;2023-03-20T11:37:47;3.55;;;2.83;;
51358;SDS011;37448;51.588;7.248;2023-03-20T11:39:56;5.40;;;2.60;;
51358;SDS011;37448;51.588;7.248;2023-03-20T11:42:22;7.07;;;2.45;;
51358;SDS011;37448;51.588;7.248;2023-03-20T11:44:28;7.20;;;2.55;;
51358;SDS011;37448;51.588;7.248;2023-03-20T11:46:28;5.43;;;2.63;;
51358;SDS011;37448;51.588;7.248;2023-03-20T11:48:36;4.75;;;2.47;;
51358;SDS011;37448;51.588;7.248;2023-03-20T11:50:41;6.45;;;2.85;;
51358;SDS011;37448;51.588;7.248;2023-03-20T11:52:44;3.08;;;2.08;;
51358;SDS011;37448;51.588;7.248;2023-03-20T11:54:46;4.35;;;2.50;;
51358;SDS011;37448;51.588;7.248;2023-03-20T11:56:55;6.68;;;3.40;;
51358;SDS011;37448;51.588;7.248;2023-03-20T12:01:17;5.07;;;2.90;;
51358;SDS011;37448;51.588;7.248;2023-03-20T12:05:41;4.13;;;2.80;;
51358;SDS011;37448;51.588;7.248;2023-03-20T12:07:42;8.45;;;4.20;;
51358;SDS011;37448;51.588;7.248;2023-03-20T12:09:49;6.47;;;3.33;;
51358;SDS011;37448;51.588;7.248;2023-03-20T12:11:51;4.60;;;2.17;;
51358;SDS011;37448;51.588;7.248;2023-03-20T12:13:58;4.65;;;2.80;;
51358;SDS011;37448;51.588;7.248;2023-03-20T12:16:01;8.07;;;3.00;;
51358;SDS011;37448;51.588;7.248;2023-03-20T12:18:08;6.07;;;2.63;;
51358;SDS011;37448;51.588;7.248;2023-03-20T12:20:21;6.88;;;2.38;;
51358;SDS011;37448;51.588;7.248;2023-03-20T12:22:29;6.07;;;2.88;;
51358;SDS011;37448;51.588;7.248;2023-03-20T12:24:40;4.15;;;2.35;;
51358;SDS011;37448;51.588;7.248;2023-03-20T12:29:30;6.63;;;2.53;;
51358;SDS011;37448;51.588;7.248;2023-03-20T12:31:45;5.93;;;1.88;;
51358;SDS011;37448;51.588;7.248;2023-03-20T12:33:57;5.53;;;2.13;;
51358;SDS011;37448;51.588;7.248;2023-03-20T12:36:00;6.47;;;2.10;;
51358;SDS011;37448;51.588;7.248;2023-03-20T12:38:04;4.55;;;2.10;;
51358;SDS011;37448;51.588;7.248;2023-03-20T12:40:17;3.35;;;1.80;;
51358;SDS011;37448;51.588;7.248;2023-03-20T12:44:54;2.03;;;1.83;;
51358;SDS011;37448;51.588;7.248;2023-03-20T12:49:33;6.47;;;2.95;;
51358;SDS011;37448;51.588;7.248;2023-03-20T12:54:20;5.55;;;2.65;;
51358;SDS011;37448;51.588;7.248;2023-03-20T12:59:07;8.43;;;3.17;;
51358;SDS011;37448;51.588;7.248;2023-03-20T13:01:12;5.10;;;3.33;;
51358;SDS011;37448;51.588;7.248;2023-03-20T13:05:55;6.40;;;3.30;;
51358;SDS011;37448;51.588;7.248;2023-03-20T13:15:15;8.75;;;3.70;;
51358;SDS011;37448;51.588;7.248;2023-03-20T13:20:01;4.68;;;3.20;;
51358;SDS011;37448;51.588;7.248;2023-03-20T13:22:24;7.55;;;4.13;;
51358;SDS011;37448;51.588;7.248;2023-03-20T13:24:32;4.75;;;3.30;;
51358;SDS011;37448;51.588;7.248;2023-03-20T13:26:40;3.88;;;2.80;;
51358;SDS011;37448;51.588;7.248;2023-03-20T13:30:46;4.88;;;3.20;;
51358;SDS011;37448;51.588;7.248;2023-03-20T13:39:42;4.65;;;2.80;;
51358;SDS011;37448;51.588;7.248;2023-03-20T13:41:52;4.10;;;1.73;;
51358;SDS011;37448;51.588;7.248;2023-03-20T13:43:58;4.53;;;1.58;;
51358;SDS011;37448;51.588;7.248;2023-03-20T13:46:05;5.47;;;1.92;;
51358;SDS011;37448;51.588;7.248;2023-03-20T13:52:39;3.22;;;1.83;;
51358;SDS011;37448;51.588;7.248;2023-03-20T13:55:00;3.22;;;1.77;;
51358;SDS011;37448;51.588;7.248;2023-03-20T13:57:26;7.28;;;1.88;;
51358;SDS011;37448;51.588;7.248;2023-03-20T14:04:13;7.78;;;2.75;;
51358;SDS011;37448;51.588;7.248;2023-03-20T14:08:33;7.15;;;1.95;;
51358;SDS011;37448;51.588;7.248;2023-03-20T14:10:37;3.75;;;1.88;;
51358;SDS011;37448;51.588;7.248;2023-03-20T14:12:38;3.53;;;1.58;;
51358;SDS011;37448;51.588;7.248;2023-03-20T14:14:45;1.80;;;1.45;;
51358;SDS011;37448;51.588;7.248;2023-03-20T14:17:02;2.92;;;1.38;;
51358;SDS011;37448;51.588;7.248;2023-03-20T14:19:23;3.60;;;1.60;;
51358;SDS011;37448;51.588;7.248;2023-03-20T14:21:24;2.63;;;1.67;;